Terminal Aerodrome Forecast
Issued by NWS

Home | Current Version | Previous Version | Text Only | Print | Product List | Glossary On
Versions: 1 2 3 4 5 6 7 8 9 10 11 12 13 14 15 16 17 18 19 20
000
FTUS42 KJAX 250500
TAFCRG
TAF
KCRG 250538Z 2506/2606 25004KT P6SM SCT250
     FM251400 27008KT P6SM FEW020 BKN250
     FM251700 20008KT P6SM VCTS SCT040CB BKN100 BKN250
     FM260100 21006KT P6SM SCT040 SCT100 BKN250=

USA.gov is the U.S. government's official web portal to all federal, state and local government web resources and services.